Weather at Ninoy Aquino International Airport

Public forecast

Using degrees Celsius for public forecast. Weather courtesy of forecast.io.

Current aviation weather report (METAR) for Ninoy Aquino International Airport

2022/12/01 00:00 (retrieved 31 minutes ago)

RPLL 010000Z VRB02KT 9999 SCT023 SCT100 BKN300 27/24 Q1010 NOSIG RMK A2983

Closest aviation forecast (TAF) to Ninoy Aquino International Airport

Closest forecast is Haikou Meilan International Airport, 687.4 nm (1,273.1 km) WNW.

2022/11/30 18:48 Ammendment (retrieved 6 hours ago)

TAF AMD ZJHK 302045Z 3018/0118 04006G12MPS 6000 BKN006 BKN020 TX23/3018Z TN17/0118Z BECMG 3022/3023 BKN010 BKN020